sensor_id;sensor_type;location;lat;lon;timestamp;pressure;altitude;pressure_sealevel;temperature;humidity
35716;BME280;21840;44.920;8.616;2023-02-20T00:01:03;101255.13;;;13.31;47.97
35716;BME280;21840;44.920;8.616;2023-02-20T00:03:29;101251.47;;;12.37;50.05
35716;BME280;21840;44.920;8.616;2023-02-20T00:05:55;101256.28;;;12.85;49.65
35716;BME280;21840;44.920;8.616;2023-02-20T00:08:21;101250.66;;;12.68;50.10
35716;BME280;21840;44.920;8.616;2023-02-20T00:10:48;101251.03;;;12.85;49.58
35716;BME280;21840;44.920;8.616;2023-02-20T00:13:13;101252.72;;;12.86;49.33
35716;BME280;21840;44.920;8.616;2023-02-20T00:15:39;101242.28;;;13.05;49.04
35716;BME280;21840;44.920;8.616;2023-02-20T00:18:04;101243.22;;;13.25;48.61
35716;BME280;21840;44.920;8.616;2023-02-20T00:20:31;101253.28;;;12.89;50.42
35716;BME280;21840;44.920;8.616;2023-02-20T00:22:57;101257.94;;;12.65;50.24
35716;BME280;21840;44.920;8.616;2023-02-20T00:25:23;101255.31;;;12.65;49.72
35716;BME280;21840;44.920;8.616;2023-02-20T00:27:48;101256.03;;;12.88;48.75
35716;BME280;21840;44.920;8.616;2023-02-20T00:30:16;101259.25;;;12.70;49.52
35716;BME280;21840;44.920;8.616;2023-02-20T00:32:42;101253.41;;;12.88;49.27
35716;BME280;21840;44.920;8.616;2023-02-20T00:35:10;101263.03;;;12.13;51.22
35716;BME280;21840;44.920;8.616;2023-02-20T00:37:36;101255.47;;;12.63;50.50
35716;BME280;21840;44.920;8.616;2023-02-20T00:40:05;101247.09;;;12.79;50.00
35716;BME280;21840;44.920;8.616;2023-02-20T00:42:31;101256.19;;;13.07;49.02
35716;BME280;21840;44.920;8.616;2023-02-20T00:44:57;101260.19;;;12.37;50.10
35716;BME280;21840;44.920;8.616;2023-02-20T00:47:22;101266.59;;;12.12;50.78
35716;BME280;21840;44.920;8.616;2023-02-20T00:49:48;101269.84;;;12.16;50.81
35716;BME280;21840;44.920;8.616;2023-02-20T00:52:13;101267.91;;;12.29;50.89
35716;BME280;21840;44.920;8.616;2023-02-20T00:54:39;101258.75;;;12.44;50.11
35716;BME280;21840;44.920;8.616;2023-02-20T00:57:04;101265.09;;;11.87;52.20
35716;BME280;21840;44.920;8.616;2023-02-20T00:59:30;101270.22;;;12.11;51.00
35716;BME280;21840;44.920;8.616;2023-02-20T01:01:55;101264.81;;;11.45;52.03
35716;BME280;21840;44.920;8.616;2023-02-20T01:04:21;101263.63;;;11.49;52.50
35716;BME280;21840;44.920;8.616;2023-02-20T01:06:46;101265.19;;;11.74;51.62
35716;BME280;21840;44.920;8.616;2023-02-20T01:09:12;101275.34;;;11.79;52.11
35716;BME280;21840;44.920;8.616;2023-02-20T01:11:38;101275.34;;;11.79;52.47
35716;BME280;21840;44.920;8.616;2023-02-20T01:14:05;101278.47;;;11.61;52.39
35716;BME280;21840;44.920;8.616;2023-02-20T01:16:30;101280.16;;;11.74;51.68
35716;BME280;21840;44.920;8.616;2023-02-20T01:18:56;101284.19;;;11.55;51.79
35716;BME280;21840;44.920;8.616;2023-02-20T01:21:22;101285.94;;;11.21;52.17
35716;BME280;21840;44.920;8.616;2023-02-20T01:23:48;101285.03;;;11.33;52.69
35716;BME280;21840;44.920;8.616;2023-02-20T01:26:13;101291.84;;;11.47;52.57
35716;BME280;21840;44.920;8.616;2023-02-20T01:28:43;101295.31;;;11.59;51.69
35716;BME280;21840;44.920;8.616;2023-02-20T01:31:08;101292.22;;;11.65;51.16
35716;BME280;21840;44.920;8.616;2023-02-20T01:33:34;101299.16;;;11.66;51.50
35716;BME280;21840;44.920;8.616;2023-02-20T01:35:59;101301.53;;;11.58;51.77
35716;BME280;21840;44.920;8.616;2023-02-20T01:38:25;101292.22;;;11.76;51.42
35716;BME280;21840;44.920;8.616;2023-02-20T01:40:50;101300.59;;;11.59;51.91
35716;BME280;21840;44.920;8.616;2023-02-20T01:43:16;101286.97;;;11.87;51.33
35716;BME280;21840;44.920;8.616;2023-02-20T01:45:42;101290.66;;;11.74;51.52
35716;BME280;21840;44.920;8.616;2023-02-20T01:48:22;101295.88;;;11.29;52.96
35716;BME280;21840;44.920;8.616;2023-02-20T01:50:51;101290.75;;;11.38;53.35
35716;BME280;21840;44.920;8.616;2023-02-20T01:53:20;101290.53;;;11.64;52.47
35716;BME280;21840;44.920;8.616;2023-02-20T01:55:53;101292.47;;;11.84;52.70
35716;BME280;21840;44.920;8.616;2023-02-20T01:58:30;101296.22;;;11.35;53.79
35716;BME280;21840;44.920;8.616;2023-02-20T02:00:59;101289.94;;;11.72;53.43
35716;BME280;21840;44.920;8.616;2023-02-20T02:03:28;101283.72;;;11.73;52.91
35716;BME280;21840;44.920;8.616;2023-02-20T02:06:02;101284.81;;;11.93;52.45
35716;BME280;21840;44.920;8.616;2023-02-20T02:08:29;101295.72;;;12.11;51.99
35716;BME280;21840;44.920;8.616;2023-02-20T02:11:02;101285.75;;;12.03;51.87
35716;BME280;21840;44.920;8.616;2023-02-20T02:13:33;101283.03;;;12.04;51.70
35716;BME280;21840;44.920;8.616;2023-02-20T02:30:27;101286.34;;;11.73;52.18
35716;BME280;21840;44.920;8.616;2023-02-20T02:33:20;101289.44;;;11.55;51.49
35716;BME280;21840;44.920;8.616;2023-02-20T02:42:14;101304.03;;;10.66;51.62
35716;BME280;21840;44.920;8.616;2023-02-20T02:44:52;101314.31;;;10.93;50.49
35716;BME280;21840;44.920;8.616;2023-02-20T02:50:05;101319.03;;;10.40;51.30
35716;BME280;21840;44.920;8.616;2023-02-20T02:52:33;101317.00;;;10.56;51.19
35716;BME280;21840;44.920;8.616;2023-02-20T02:55:21;101317.84;;;10.81;51.26
35716;BME280;21840;44.920;8.616;2023-02-20T02:57:46;101332.84;;;11.03;51.23
35716;BME280;21840;44.920;8.616;2023-02-20T03:00:21;101328.59;;;11.13;50.73
35716;BME280;21840;44.920;8.616;2023-02-20T03:03:25;101321.94;;;10.96;50.70
35716;BME280;21840;44.920;8.616;2023-02-20T03:08:39;101328.72;;;10.40;52.02
35716;BME280;21840;44.920;8.616;2023-02-20T03:11:10;101334.75;;;10.53;52.23
35716;BME280;21840;44.920;8.616;2023-02-20T03:13:45;101335.78;;;10.13;52.29
35716;BME280;21840;44.920;8.616;2023-02-20T03:16:43;101333.25;;;10.12;52.91
35716;BME280;21840;44.920;8.616;2023-02-20T03:19:12;101344.56;;;10.38;52.52
35716;BME280;21840;44.920;8.616;2023-02-20T03:21:42;101353.31;;;10.39;52.48
35716;BME280;21840;44.920;8.616;2023-02-20T03:24:10;101360.03;;;10.67;52.59
35716;BME280;21840;44.920;8.616;2023-02-20T03:26:40;101357.97;;;10.59;52.21
35716;BME280;21840;44.920;8.616;2023-02-20T03:29:15;101362.53;;;10.92;52.10
35716;BME280;21840;44.920;8.616;2023-02-20T03:31:49;101362.72;;;10.54;52.40
35716;BME280;21840;44.920;8.616;2023-02-20T03:34:34;101357.91;;;10.96;51.56
35716;BME280;21840;44.920;8.616;2023-02-20T03:37:20;101372.16;;;10.80;51.96
35716;BME280;21840;44.920;8.616;2023-02-20T03:40:08;101371.44;;;10.78;52.23
35716;BME280;21840;44.920;8.616;2023-02-20T03:43:01;101365.00;;;10.46;53.28
35716;BME280;21840;44.920;8.616;2023-02-20T03:45:48;101361.88;;;11.01;52.00
35716;BME280;21840;44.920;8.616;2023-02-20T03:50:49;101361.50;;;10.58;53.91
35716;BME280;21840;44.920;8.616;2023-02-20T03:53:15;101365.22;;;10.79;53.03
35716;BME280;21840;44.920;8.616;2023-02-20T03:55:41;101363.53;;;10.54;53.02
35716;BME280;21840;44.920;8.616;2023-02-20T03:58:12;101372.50;;;10.76;52.26
35716;BME280;21840;44.920;8.616;2023-02-20T04:00:45;101375.50;;;10.58;52.84
35716;BME280;21840;44.920;8.616;2023-02-20T04:03:22;101379.53;;;10.51;53.60
35716;BME280;21840;44.920;8.616;2023-02-20T04:05:54;101385.78;;;10.62;52.71
35716;BME280;21840;44.920;8.616;2023-02-20T04:08:41;101381.63;;;10.21;52.31
35716;BME280;21840;44.920;8.616;2023-02-20T04:11:16;101390.06;;;9.75;52.09
35716;BME280;21840;44.920;8.616;2023-02-20T04:13:46;101386.41;;;9.24;52.85
35716;BME280;21840;44.920;8.616;2023-02-20T04:16:12;101393.94;;;9.69;51.65
35716;BME280;21840;44.920;8.616;2023-02-20T04:18:39;101389.91;;;9.38;52.42
35716;BME280;21840;44.920;8.616;2023-02-20T04:21:10;101394.25;;;9.90;51.48
35716;BME280;21840;44.920;8.616;2023-02-20T04:23:43;101401.38;;;10.01;51.11
35716;BME280;21840;44.920;8.616;2023-02-20T04:26:18;101402.66;;;9.95;51.60
35716;BME280;21840;44.920;8.616;2023-02-20T04:28:47;101411.69;;;9.91;51.65
35716;BME280;21840;44.920;8.616;2023-02-20T04:31:16;101403.28;;;10.11;51.16
35716;BME280;21840;44.920;8.616;2023-02-20T04:33:44;101412.94;;;9.98;51.53
35716;BME280;21840;44.920;8.616;2023-02-20T04:36:14;101412.97;;;10.11;51.54
35716;BME280;21840;44.920;8.616;2023-02-20T04:38:40;101417.44;;;10.22;51.12
35716;BME280;21840;44.920;8.616;2023-02-20T04:41:10;101424.81;;;9.91;51.88
35716;BME280;21840;44.920;8.616;2023-02-20T04:43:36;101422.19;;;10.17;51.19
35716;BME280;21840;44.920;8.616;2023-02-20T04:46:01;101431.94;;;10.14;51.36
35716;BME280;21840;44.920;8.616;2023-02-20T04:48:28;101441.03;;;9.70;52.32
35716;BME280;21840;44.920;8.616;2023-02-20T04:50:53;101435.78;;;9.58;52.85
35716;BME280;21840;44.920;8.616;2023-02-20T04:53:19;101444.44;;;9.45;53.26
35716;BME280;21840;44.920;8.616;2023-02-20T04:55:44;101457.69;;;9.44;53.24
35716;BME280;21840;44.920;8.616;2023-02-20T04:58:13;101447.00;;;9.60;53.52
35716;BME280;21840;44.920;8.616;2023-02-20T05:01:01;101454.53;;;9.52;53.76
35716;BME280;21840;44.920;8.616;2023-02-20T05:03:27;101457.56;;;9.45;53.62
35716;BME280;21840;44.920;8.616;2023-02-20T05:05:52;101475.78;;;9.07;54.03
35716;BME280;21840;44.920;8.616;2023-02-20T05:08:18;101484.91;;;9.68;52.75
35716;BME280;21840;44.920;8.616;2023-02-20T05:10:43;101487.53;;;9.68;52.60
35716;BME280;21840;44.920;8.616;2023-02-20T05:13:10;101491.84;;;9.42;53.30
35716;BME280;21840;44.920;8.616;2023-02-20T05:15:36;101481.16;;;9.85;52.15
35716;BME280;21840;44.920;8.616;2023-02-20T05:18:01;101487.44;;;9.83;52.01
35716;BME280;21840;44.920;8.616;2023-02-20T05:20:27;101488.59;;;9.39;52.67
35716;BME280;21840;44.920;8.616;2023-02-20T05:23:11;101486.16;;;9.76;52.53
35716;BME280;21840;44.920;8.616;2023-02-20T05:25:36;101486.66;;;9.28;53.22
35716;BME280;21840;44.920;8.616;2023-02-20T05:28:02;101483.72;;;9.33;53.23
35716;BME280;21840;44.920;8.616;2023-02-20T05:30:27;101487.22;;;9.86;52.14
35716;BME280;21840;44.920;8.616;2023-02-20T05:32:53;101483.06;;;9.96;51.60
35716;BME280;21840;44.920;8.616;2023-02-20T05:35:18;101498.19;;;9.65;52.04
35716;BME280;21840;44.920;8.616;2023-02-20T05:37:43;101507.81;;;9.52;52.61
35716;BME280;21840;44.920;8.616;2023-02-20T05:40:09;101509.31;;;9.96;52.09
35716;BME280;21840;44.920;8.616;2023-02-20T05:42:35;101506.53;;;9.85;51.93
35716;BME280;21840;44.920;8.616;2023-02-20T05:45:00;101516.56;;;9.65;52.94
35716;BME280;21840;44.920;8.616;2023-02-20T05:47:26;101517.59;;;9.09;54.38
35716;BME280;21840;44.920;8.616;2023-02-20T05:49:51;101520.25;;;8.80;54.83
35716;BME280;21840;44.920;8.616;2023-02-20T05:52:17;101523.63;;;8.96;55.09
35716;BME280;21840;44.920;8.616;2023-02-20T05:54:45;101528.94;;;8.80;55.75
35716;BME280;21840;44.920;8.616;2023-02-20T05:57:11;101529.22;;;9.04;55.41
35716;BME280;21840;44.920;8.616;2023-02-20T05:59:37;101523.81;;;9.62;54.37
35716;BME280;21840;44.920;8.616;2023-02-20T06:02:02;101521.25;;;9.87;53.99
35716;BME280;21840;44.920;8.616;2023-02-20T06:04:28;101528.06;;;9.50;55.01
35716;BME280;21840;44.920;8.616;2023-02-20T06:06:54;101527.25;;;9.35;55.14
35716;BME280;21840;44.920;8.616;2023-02-20T06:09:19;101534.03;;;9.52;55.02
35716;BME280;21840;44.920;8.616;2023-02-20T06:11:53;101540.69;;;9.70;54.22
35716;BME280;21840;44.920;8.616;2023-02-20T06:14:20;101547.94;;;9.40;54.89
35716;BME280;21840;44.920;8.616;2023-02-20T06:16:46;101550.63;;;9.92;54.00
35716;BME280;21840;44.920;8.616;2023-02-20T06:19:20;101555.94;;;9.78;54.15
35716;BME280;21840;44.920;8.616;2023-02-20T06:21:47;101562.13;;;9.77;54.06
35716;BME280;21840;44.920;8.616;2023-02-20T06:24:14;101564.00;;;9.48;54.18
35716;BME280;21840;44.920;8.616;2023-02-20T06:26:40;101560.22;;;9.66;54.13
35716;BME280;21840;44.920;8.616;2023-02-20T06:29:06;101577.72;;;9.93;54.18
35716;BME280;21840;44.920;8.616;2023-02-20T06:31:32;101575.44;;;10.01;53.78
35716;BME280;21840;44.920;8.616;2023-02-20T06:33:57;101569.00;;;9.92;54.38
35716;BME280;21840;44.920;8.616;2023-02-20T06:36:29;101571.25;;;9.99;53.91
35716;BME280;21840;44.920;8.616;2023-02-20T06:38:56;101564.94;;;10.01;54.39
35716;BME280;21840;44.920;8.616;2023-02-20T06:41:21;101574.22;;;9.53;55.63
35716;BME280;21840;44.920;8.616;2023-02-20T06:43:47;101585.94;;;9.47;55.91
35716;BME280;21840;44.920;8.616;2023-02-20T06:46:12;101590.41;;;9.59;55.65
35716;BME280;21840;44.920;8.616;2023-02-20T06:48:44;101592.69;;;10.18;54.73
35716;BME280;21840;44.920;8.616;2023-02-20T06:51:10;101590.38;;;10.13;55.75
35716;BME280;21840;44.920;8.616;2023-02-20T06:53:36;101598.69;;;9.93;55.50
35716;BME280;21840;44.920;8.616;2023-02-20T06:56:13;101605.91;;;10.17;54.98
35716;BME280;21840;44.920;8.616;2023-02-20T06:58:40;101607.47;;;10.06;55.41
35716;BME280;21840;44.920;8.616;2023-02-20T07:01:05;101611.31;;;10.28;55.37
35716;BME280;21840;44.920;8.616;2023-02-20T07:03:31;101618.31;;;10.67;54.36
35716;BME280;21840;44.920;8.616;2023-02-20T07:05:56;101628.47;;;10.06;55.77
35716;BME280;21840;44.920;8.616;2023-02-20T07:08:21;101629.25;;;10.21;55.29
35716;BME280;21840;44.920;8.616;2023-02-20T07:10:47;101633.22;;;10.41;55.11
35716;BME280;21840;44.920;8.616;2023-02-20T07:13:12;101627.88;;;10.81;54.47
35716;BME280;21840;44.920;8.616;2023-02-20T07:15:38;101622.25;;;11.24;53.54
35716;BME280;21840;44.920;8.616;2023-02-20T07:18:03;101622.59;;;11.07;53.62
35716;BME280;21840;44.920;8.616;2023-02-20T07:20:29;101626.91;;;10.95;53.67
35716;BME280;21840;44.920;8.616;2023-02-20T07:22:54;101627.13;;;10.53;55.44
35716;BME280;21840;44.920;8.616;2023-02-20T07:25:21;101650.66;;;11.32;54.14
35716;BME280;21840;44.920;8.616;2023-02-20T07:27:47;101647.66;;;11.49;52.99
35716;BME280;21840;44.920;8.616;2023-02-20T07:30:12;101656.97;;;11.29;53.40
35716;BME280;21840;44.920;8.616;2023-02-20T07:32:38;101664.78;;;11.55;52.91
35716;BME280;21840;44.920;8.616;2023-02-20T07:35:03;101660.78;;;11.62;53.02
35716;BME280;21840;44.920;8.616;2023-02-20T07:37:30;101668.53;;;10.88;54.74
35716;BME280;21840;44.920;8.616;2023-02-20T07:39:55;101657.41;;;11.60;53.34
35716;BME280;21840;44.920;8.616;2023-02-20T07:42:20;101676.50;;;11.87;52.96
35716;BME280;21840;44.920;8.616;2023-02-20T07:44:56;101673.06;;;12.11;52.25
35716;BME280;21840;44.920;8.616;2023-02-20T07:47:22;101671.53;;;11.83;52.64
35716;BME280;21840;44.920;8.616;2023-02-20T07:49:47;101664.38;;;12.22;52.01
35716;BME280;21840;44.920;8.616;2023-02-20T07:52:12;101672.81;;;11.53;53.35
35716;BME280;21840;44.920;8.616;2023-02-20T07:54:38;101676.72;;;11.35;54.43
35716;BME280;21840;44.920;8.616;2023-02-20T07:57:03;101665.91;;;12.13;52.71
35716;BME280;21840;44.920;8.616;2023-02-20T07:59:29;101666.75;;;12.25;51.91
35716;BME280;21840;44.920;8.616;2023-02-20T08:01:54;101676.78;;;12.44;51.91
35716;BME280;21840;44.920;8.616;2023-02-20T08:04:20;101673.34;;;12.55;51.79
35716;BME280;21840;44.920;8.616;2023-02-20T08:06:45;101677.56;;;12.68;51.86
35716;BME280;21840;44.920;8.616;2023-02-20T08:09:10;101681.09;;;12.45;52.18
35716;BME280;21840;44.920;8.616;2023-02-20T08:11:36;101686.00;;;12.38;52.27
35716;BME280;21840;44.920;8.616;2023-02-20T08:14:03;101694.72;;;12.15;52.58
35716;BME280;21840;44.920;8.616;2023-02-20T08:16:29;101697.97;;;12.42;52.53
35716;BME280;21840;44.920;8.616;2023-02-20T08:18:54;101701.00;;;12.60;51.60
35716;BME280;21840;44.920;8.616;2023-02-20T08:21:20;101695.94;;;12.81;51.26
35716;BME280;21840;44.920;8.616;2023-02-20T08:23:46;101699.94;;;12.63;50.94
35716;BME280;21840;44.920;8.616;2023-02-20T08:26:12;101697.34;;;12.39;51.48
35716;BME280;21840;44.920;8.616;2023-02-20T08:28:38;101700.66;;;12.54;51.01
35716;BME280;21840;44.920;8.616;2023-02-20T08:31:04;101693.59;;;12.65;51.23
35716;BME280;21840;44.920;8.616;2023-02-20T08:33:30;101693.19;;;12.94;50.45
35716;BME280;21840;44.920;8.616;2023-02-20T08:35:55;101686.03;;;13.19;49.63
35716;BME280;21840;44.920;8.616;2023-02-20T08:38:33;101692.53;;;13.26;49.27
35716;BME280;21840;44.920;8.616;2023-02-20T08:41:02;101694.72;;;13.43;48.88
35716;BME280;21840;44.920;8.616;2023-02-20T08:43:46;101695.28;;;13.47;48.53
35716;BME280;21840;44.920;8.616;2023-02-20T08:46:11;101697.28;;;12.98;49.59
35716;BME280;21840;44.920;8.616;2023-02-20T08:48:37;101693.84;;;13.31;48.94
35716;BME280;21840;44.920;8.616;2023-02-20T08:51:04;101696.16;;;13.36;48.63
35716;BME280;21840;44.920;8.616;2023-02-20T08:53:30;101692.31;;;13.29;48.63
35716;BME280;21840;44.920;8.616;2023-02-20T08:55:55;101690.13;;;13.56;48.04
35716;BME280;21840;44.920;8.616;2023-02-20T08:58:22;101689.53;;;13.53;48.31
35716;BME280;21840;44.920;8.616;2023-02-20T09:00:48;101693.50;;;13.58;47.84
35716;BME280;21840;44.920;8.616;2023-02-20T09:03:14;101689.63;;;13.63;47.99
35716;BME280;21840;44.920;8.616;2023-02-20T09:05:41;101691.44;;;13.62;47.52
35716;BME280;21840;44.920;8.616;2023-02-20T09:08:07;101687.72;;;13.08;48.74
35716;BME280;21840;44.920;8.616;2023-02-20T09:10:32;101680.28;;;13.58;48.07
35716;BME280;21840;44.920;8.616;2023-02-20T09:12:58;101676.31;;;13.64;48.01
35716;BME280;21840;44.920;8.616;2023-02-20T09:15:25;101680.56;;;13.88;47.12
35716;BME280;21840;44.920;8.616;2023-02-20T09:17:51;101674.09;;;13.92;47.05
35716;BME280;21840;44.920;8.616;2023-02-20T09:20:17;101682.22;;;14.11;46.46
35716;BME280;21840;44.920;8.616;2023-02-20T09:22:46;101681.25;;;13.69;47.30
35716;BME280;21840;44.920;8.616;2023-02-20T09:25:12;101689.00;;;13.81;47.23
35716;BME280;21840;44.920;8.616;2023-02-20T09:27:38;101680.50;;;13.78;47.03
35716;BME280;21840;44.920;8.616;2023-02-20T09:30:04;101686.63;;;13.67;47.33
35716;BME280;21840;44.920;8.616;2023-02-20T09:32:30;101687.66;;;13.87;47.35
35716;BME280;21840;44.920;8.616;2023-02-20T09:34:55;101686.34;;;14.25;46.89
35716;BME280;21840;44.920;8.616;2023-02-20T09:37:22;101679.84;;;14.29;46.72
35716;BME280;21840;44.920;8.616;2023-02-20T09:39:48;101693.78;;;14.52;46.34
35716;BME280;21840;44.920;8.616;2023-02-20T09:45:08;101689.75;;;14.48;46.34
35716;BME280;21840;44.920;8.616;2023-02-20T09:50:09;101689.41;;;14.09;47.26
35716;BME280;21840;44.920;8.616;2023-02-20T09:52:38;101695.00;;;13.72;47.65
35716;BME280;21840;44.920;8.616;2023-02-20T09:55:11;101691.53;;;13.83;47.67
35716;BME280;21840;44.920;8.616;2023-02-20T09:57:40;101695.13;;;13.82;47.86
35716;BME280;21840;44.920;8.616;2023-02-20T10:00:13;101686.38;;;12.91;49.61
35716;BME280;21840;44.920;8.616;2023-02-20T10:02:46;101684.50;;;13.38;49.64
35716;BME280;21840;44.920;8.616;2023-02-20T10:05:22;101692.03;;;14.20;47.53
35716;BME280;21840;44.920;8.616;2023-02-20T10:07:49;101690.78;;;13.92;47.70
35716;BME280;21840;44.920;8.616;2023-02-20T10:10:29;101682.47;;;14.40;46.64
35716;BME280;21840;44.920;8.616;2023-02-20T10:15:44;101684.94;;;14.74;46.22
35716;BME280;21840;44.920;8.616;2023-02-20T10:21:11;101683.31;;;14.62;46.24
35716;BME280;21840;44.920;8.616;2023-02-20T10:26:28;101678.13;;;14.39;46.87
35716;BME280;21840;44.920;8.616;2023-02-20T10:29:09;101676.09;;;14.85;46.50
35716;BME280;21840;44.920;8.616;2023-02-20T10:31:48;101674.53;;;14.82;46.36
35716;BME280;21840;44.920;8.616;2023-02-20T10:34:24;101675.63;;;14.38;47.56
35716;BME280;21840;44.920;8.616;2023-02-20T10:37:01;101671.28;;;14.69;47.25
35716;BME280;21840;44.920;8.616;2023-02-20T10:39:31;101673.84;;;14.80;46.61
35716;BME280;21840;44.920;8.616;2023-02-20T10:42:11;101669.69;;;14.45;47.77
35716;BME280;21840;44.920;8.616;2023-02-20T10:44:45;101652.78;;;15.00;46.68
35716;BME280;21840;44.920;8.616;2023-02-20T10:47:15;101649.72;;;14.74;47.11
35716;BME280;21840;44.920;8.616;2023-02-20T10:49:48;101659.34;;;14.54;47.50
35716;BME280;21840;44.920;8.616;2023-02-20T10:52:23;101652.00;;;15.09;46.80
35716;BME280;21840;44.920;8.616;2023-02-20T10:55:13;101650.41;;;15.37;45.83
35716;BME280;21840;44.920;8.616;2023-02-20T10:57:56;101649.16;;;15.31;46.04
35716;BME280;21840;44.920;8.616;2023-02-20T11:00:30;101641.38;;;15.40;46.04
35716;BME280;21840;44.920;8.616;2023-02-20T11:03:33;101645.28;;;15.86;45.05
35716;BME280;21840;44.920;8.616;2023-02-20T11:05:59;101638.94;;;15.58;45.98
35716;BME280;21840;44.920;8.616;2023-02-20T11:08:26;101635.44;;;15.67;45.63
35716;BME280;21840;44.920;8.616;2023-02-20T11:10:55;101637.53;;;15.53;46.31
35716;BME280;21840;44.920;8.616;2023-02-20T11:13:23;101632.28;;;16.41;44.22
35716;BME280;21840;44.920;8.616;2023-02-20T11:15:52;101631.19;;;16.24;44.21
35716;BME280;21840;44.920;8.616;2023-02-20T11:18:29;101623.72;;;16.67;43.75
35716;BME280;21840;44.920;8.616;2023-02-20T11:20:56;101628.31;;;16.74;43.22
35716;BME280;21840;44.920;8.616;2023-02-20T11:23:42;101624.91;;;17.01;43.44
35716;BME280;21840;44.920;8.616;2023-02-20T11:26:24;101620.56;;;16.44;43.86
35716;BME280;21840;44.920;8.616;2023-02-20T11:31:28;101616.88;;;16.84;43.40
35716;BME280;21840;44.920;8.616;2023-02-20T11:33:54;101605.44;;;16.64;43.92
35716;BME280;21840;44.920;8.616;2023-02-20T11:36:23;101603.66;;;16.45;44.21
35716;BME280;21840;44.920;8.616;2023-02-20T11:39:18;101601.13;;;17.37;42.43
35716;BME280;21840;44.920;8.616;2023-02-20T11:41:41;101595.59;;;16.93;43.35
35716;BME280;21840;44.920;8.616;2023-02-20T11:46:36;101577.19;;;17.65;41.85
35716;BME280;21840;44.920;8.616;2023-02-20T11:49:07;101581.94;;;17.43;42.19
35716;BME280;21840;44.920;8.616;2023-02-20T11:51:41;101564.84;;;17.46;42.56
35716;BME280;21840;44.920;8.616;2023-02-20T11:54:16;101570.19;;;17.82;41.67
35716;BME280;21840;44.920;8.616;2023-02-20T11:59:46;101560.69;;;17.43;42.65
35716;BME280;21840;44.920;8.616;2023-02-20T12:04:43;101555.81;;;17.57;42.49
35716;BME280;21840;44.920;8.616;2023-02-20T12:09:57;101535.72;;;17.54;42.50
35716;BME280;21840;44.920;8.616;2023-02-20T12:12:27;101544.50;;;18.08;41.77
35716;BME280;21840;44.920;8.616;2023-02-20T12:14:55;101537.72;;;17.70;42.54
35716;BME280;21840;44.920;8.616;2023-02-20T12:19:50;101534.16;;;17.97;42.45
35716;BME280;21840;44.920;8.616;2023-02-20T12:22:27;101526.16;;;17.61;43.27
35716;BME280;21840;44.920;8.616;2023-02-20T12:25:17;101513.34;;;17.93;42.94
35716;BME280;21840;44.920;8.616;2023-02-20T12:36:45;101498.22;;;18.19;42.03
35716;BME280;21840;44.920;8.616;2023-02-20T12:41:50;101482.72;;;18.75;41.18
35716;BME280;21840;44.920;8.616;2023-02-20T12:44:39;101479.28;;;18.83;41.35
35716;BME280;21840;44.920;8.616;2023-02-20T12:47:33;101477.75;;;18.46;41.99
35716;BME280;21840;44.920;8.616;2023-02-20T12:58:45;101457.03;;;18.23;42.81
35716;BME280;21840;44.920;8.616;2023-02-20T13:01:14;101447.09;;;18.25;42.83
35716;BME280;21840;44.920;8.616;2023-02-20T13:06:26;101440.88;;;18.51;42.66
35716;BME280;21840;44.920;8.616;2023-02-20T13:09:02;101434.03;;;17.62;44.42
35716;BME280;21840;44.920;8.616;2023-02-20T13:11:33;101420.47;;;18.17;43.34
35716;BME280;21840;44.920;8.616;2023-02-20T13:14:08;101425.25;;;18.14;43.45
35716;BME280;21840;44.920;8.616;2023-02-20T13:19:39;101410.13;;;18.57;42.62
35716;BME280;21840;44.920;8.616;2023-02-20T13:22:07;101408.63;;;18.11;43.72
35716;BME280;21840;44.920;8.616;2023-02-20T13:24:35;101405.53;;;18.24;43.82
35716;BME280;21840;44.920;8.616;2023-02-20T13:27:04;101408.84;;;18.26;43.58
35716;BME280;21840;44.920;8.616;2023-02-20T13:29:36;101400.50;;;18.56;43.07
35716;BME280;21840;44.920;8.616;2023-02-20T13:32:29;101393.59;;;18.28;43.70
35716;BME280;21840;44.920;8.616;2023-02-20T13:43:29;101369.25;;;18.66;43.24
35716;BME280;21840;44.920;8.616;2023-02-20T13:53:47;101356.06;;;18.40;43.66
35716;BME280;21840;44.920;8.616;2023-02-20T13:56:21;101351.59;;;18.57;43.73
35716;BME280;21840;44.920;8.616;2023-02-20T13:58:48;101351.53;;;18.99;42.85
35716;BME280;21840;44.920;8.616;2023-02-20T14:01:14;101350.06;;;19.13;42.53
35716;BME280;21840;44.920;8.616;2023-02-20T14:03:40;101342.72;;;19.23;42.19
35716;BME280;21840;44.920;8.616;2023-02-20T14:06:16;101341.22;;;18.96;42.77
35716;BME280;21840;44.920;8.616;2023-02-20T14:08:43;101337.91;;;19.02;42.77
35716;BME280;21840;44.920;8.616;2023-02-20T14:13:39;101333.72;;;19.24;42.54
35716;BME280;21840;44.920;8.616;2023-02-20T14:18:54;101330.56;;;19.21;42.70
35716;BME280;21840;44.920;8.616;2023-02-20T14:21:20;101323.22;;;19.47;42.32
35716;BME280;21840;44.920;8.616;2023-02-20T14:23:48;101323.25;;;19.31;42.57
35716;BME280;21840;44.920;8.616;2023-02-20T14:28:50;101317.44;;;19.27;42.70
35716;BME280;21840;44.920;8.616;2023-02-20T14:31:25;101315.72;;;19.34;42.48
35716;BME280;21840;44.920;8.616;2023-02-20T14:33:56;101313.44;;;19.15;42.87
35716;BME280;21840;44.920;8.616;2023-02-20T14:41:28;101317.84;;;19.64;41.55
35716;BME280;21840;44.920;8.616;2023-02-20T14:43:56;101304.56;;;19.47;41.80
35716;BME280;21840;44.920;8.616;2023-02-20T14:46:25;101302.69;;;19.64;41.39
35716;BME280;21840;44.920;8.616;2023-02-20T14:49:06;101303.22;;;19.59;41.44
35716;BME280;21840;44.920;8.616;2023-02-20T14:51:33;101305.84;;;19.76;41.12
35716;BME280;21840;44.920;8.616;2023-02-20T14:56:34;101299.19;;;19.80;41.27
35716;BME280;21840;44.920;8.616;2023-02-20T14:59:35;101297.28;;;19.97;41.18
35716;BME280;21840;44.920;8.616;2023-02-20T15:02:03;101288.19;;;19.67;41.77